Avon, North Carolina
Current Conditions -  °F | °C
As of 3:51 AM on Friday 31 Oct 2014 (Local Time) from KHSE Reporting Station
Overcast Overcast  
Wind Chill: 60°   Ceiling: 4700
Heat Index: 60°   Visibility: 10mi
Dew Point: 51°   Wind: 9mph
Humidity: 72%   Direction: 30°NNE
Pressure: 29.88"   Gusts: 23mph
Location:  35.35°N, 75.51°W
Report Text: KHSE 310751Z AUTO 03008G20KT 10SM BKN047 OVC060 16/11 A2988 RMK AO2 SLP118 T01560106 TSNO
Loading
Personal Weather Stations






























Interactive Weather Map New forecast layout! Learn more

10-Day Weather Forecast

Advertisements
Track Severe Weather on mobile